createdAt,value
2022-08-17T00:03:28.530Z,1.9
2022-08-17T00:09:48.495Z,1.9
2022-08-17T00:16:11.501Z,3.4
2022-08-17T00:22:35.986Z,3.4
2022-08-17T00:28:54.501Z,1.7
2022-08-17T00:35:14.471Z,1.7
2022-08-17T00:41:37.715Z,1.6
2022-08-17T00:47:57.512Z,1.6
2022-08-17T00:54:20.474Z,2
2022-08-17T01:00:40.563Z,2
2022-08-17T01:07:03.487Z,2.7
2022-08-17T01:13:23.531Z,2.7
2022-08-17T01:19:46.467Z,3
2022-08-17T01:26:06.567Z,3
2022-08-17T01:32:29.474Z,1.8
2022-08-17T01:38:49.499Z,1.8
2022-08-17T01:45:12.497Z,3.1
2022-08-17T01:51:32.493Z,3.1
2022-08-17T01:57:55.508Z,2.4
2022-08-17T02:04:15.472Z,2.4
2022-08-17T02:10:38.514Z,2.3
2022-08-17T02:16:58.501Z,2.3
2022-08-17T02:23:21.548Z,3.2
2022-08-17T02:29:41.479Z,3.2
2022-08-17T02:36:04.514Z,1.9
2022-08-17T02:42:24.477Z,1.9
2022-08-17T02:48:47.495Z,2.7
2022-08-17T02:55:07.509Z,2.7
2022-08-17T03:01:30.540Z,2.4
2022-08-17T03:07:50.533Z,2.4
2022-08-17T03:14:13.489Z,3.7
2022-08-17T03:20:33.498Z,3.7
2022-08-17T03:26:56.493Z,2
2022-08-17T03:33:16.510Z,2
2022-08-17T03:39:39.520Z,4.1
2022-08-17T03:45:59.522Z,4.1
2022-08-17T04:01:52.443Z,2.1
2022-08-17T04:08:12.502Z,2.1
2022-08-17T04:14:35.493Z,3.6
2022-08-17T04:20:55.522Z,3.6
2022-08-17T04:27:18.488Z,2.3
2022-08-17T04:33:38.509Z,2.3
2022-08-17T04:40:04.045Z,2.6
2022-08-17T04:46:21.515Z,2.6
2022-08-17T04:52:44.611Z,2.7
2022-08-17T04:59:04.519Z,2.7
2022-08-17T05:05:27.551Z,1.3
2022-08-17T05:11:47.543Z,1.3
2022-08-17T05:18:10.547Z,2.8
2022-08-17T05:24:38.787Z,2.8
2022-08-17T05:30:53.505Z,2.6
2022-08-17T05:37:13.644Z,2.6
2022-08-17T05:43:36.559Z,2.9
2022-08-17T05:49:56.495Z,2.9
2022-08-17T05:56:29.375Z,3.4
2022-08-17T06:02:42.054Z,3.4
2022-08-17T06:09:02.545Z,2.1
2022-08-17T06:15:22.513Z,2.1
2022-08-17T06:21:45.501Z,3.3
2022-08-17T06:28:05.481Z,3.3
2022-08-17T06:34:28.477Z,2.9
2022-08-17T06:40:48.521Z,2.9
2022-08-17T06:47:11.519Z,1.9
2022-08-17T06:53:31.556Z,1.9
2022-08-17T06:59:56.070Z,2.8
2022-08-17T07:06:14.497Z,2.8
2022-08-17T07:12:37.475Z,3.7
2022-08-17T07:18:57.523Z,3.7
2022-08-17T07:25:20.855Z,1.9
2022-08-17T07:31:40.477Z,1.9
2022-08-17T07:38:03.528Z,2.5
2022-08-17T07:44:23.483Z,2.5
2022-08-17T07:50:49.645Z,1.7
2022-08-17T07:57:06.488Z,1.7
2022-08-17T08:03:29.496Z,2.8
2022-08-17T08:09:49.505Z,2.8
2022-08-17T08:16:12.472Z,2
2022-08-17T08:22:32.527Z,2
2022-08-17T08:28:55.472Z,1.6
2022-08-17T08:35:15.502Z,1.6
2022-08-17T08:41:38.587Z,2.9
2022-08-17T08:47:58.466Z,2.9
2022-08-17T08:54:26.767Z,1.8
2022-08-17T09:00:41.476Z,1.8
2022-08-17T09:07:04.488Z,2.1
2022-08-17T09:13:24.528Z,2.1
2022-08-17T09:19:47.506Z,2.9
2022-08-17T09:36:13.113Z,4.7
2022-08-17T09:42:35.981Z,7.6
2022-08-17T09:48:55.487Z,7.6
2022-08-17T09:55:18.542Z,7.6
2022-08-17T10:01:38.674Z,7.6
2022-08-17T10:08:01.528Z,5.9
2022-08-17T10:14:36.108Z,5.9
2022-08-17T10:20:44.495Z,6.8
2022-08-17T10:27:04.512Z,6.8
2022-08-17T10:33:27.482Z,6.9
2022-08-17T10:39:50.605Z,6.9
2022-08-17T10:46:29.977Z,5.1
2022-08-17T10:52:30.493Z,5.1
2022-08-17T10:58:53.539Z,4.3
2022-08-17T11:05:13.524Z,4.3
2022-08-17T11:11:36.524Z,4.3
2022-08-17T11:17:56.476Z,4.3
2022-08-17T11:24:19.479Z,7.4
2022-08-17T11:30:39.522Z,7.4
2022-08-17T11:37:02.480Z,7.9
2022-08-17T11:43:22.521Z,7.9
2022-08-17T11:49:45.501Z,5.2
2022-08-17T11:56:05.464Z,5.2
2022-08-17T12:02:29.815Z,6.6
2022-08-17T12:08:48.477Z,6.6
2022-08-17T12:15:12.287Z,6.1
2022-08-17T12:21:31.535Z,6.1
2022-08-17T12:28:05.774Z,6.2
2022-08-17T12:34:14.632Z,6.2
2022-08-17T12:40:37.778Z,6
2022-08-17T12:46:57.856Z,6
2022-08-17T12:53:20.497Z,8.8
2022-08-17T12:59:40.524Z,8.8
2022-08-17T13:06:03.525Z,6.4
2022-08-17T13:12:23.479Z,6.4
2022-08-17T13:18:46.519Z,8
2022-08-17T13:25:06.505Z,8
2022-08-17T13:31:29.550Z,8.3
2022-08-17T13:37:49.617Z,8.3
2022-08-17T13:44:12.490Z,10
2022-08-17T13:50:32.563Z,10
2022-08-17T13:56:55.485Z,5.7
2022-08-17T14:03:15.511Z,5.7
2022-08-17T14:09:38.498Z,12.1
2022-08-17T14:15:58.491Z,12.1
2022-08-17T14:22:21.554Z,7.3
2022-08-17T14:28:45.927Z,7.3
2022-08-17T14:35:04.512Z,7.2
2022-08-17T14:41:24.570Z,7.2
2022-08-17T14:47:47.550Z,5.2
2022-08-17T14:54:07.523Z,5.2
2022-08-17T15:00:30.489Z,7
2022-08-17T15:06:50.511Z,7
2022-08-17T15:31:10.945Z,8.2
2022-08-17T15:37:30.488Z,8.2
2022-08-17T15:43:53.536Z,8
2022-08-17T15:50:13.493Z,8
2022-08-17T15:56:36.495Z,6
2022-08-17T16:03:15.767Z,6
2022-08-17T16:09:19.502Z,8.2
2022-08-17T16:15:39.522Z,8.2
2022-08-17T16:22:02.465Z,5
2022-08-17T16:28:22.507Z,5
2022-08-17T16:34:45.507Z,3.9
2022-08-17T16:41:05.508Z,3.9
2022-08-17T16:47:28.820Z,5.4
2022-08-17T16:53:48.491Z,5.4
2022-08-17T17:00:11.616Z,5
2022-08-17T17:06:31.513Z,5
2022-08-17T17:13:01.820Z,4.3
2022-08-17T17:19:15.063Z,4.3
2022-08-17T17:25:37.541Z,5.1
2022-08-17T17:31:57.480Z,5.1
2022-08-17T17:38:20.583Z,8
2022-08-17T17:44:40.551Z,8
2022-08-17T17:51:03.601Z,8.1
2022-08-17T17:57:23.583Z,8.1
2022-08-17T18:03:46.742Z,6
2022-08-17T18:10:13.812Z,6
2022-08-17T18:16:29.525Z,3.1
2022-08-17T18:22:49.663Z,3.1
2022-08-17T18:29:12.651Z,6.3
2022-08-17T18:35:32.905Z,6.3
2022-08-17T18:41:55.789Z,6.7
2022-08-17T18:48:15.471Z,6.7
2022-08-17T18:54:38.523Z,8.3
2022-08-17T19:00:58.523Z,8.3
2022-08-17T19:07:21.863Z,8.1
2022-08-17T19:13:41.801Z,8.1
2022-08-17T19:20:04.511Z,6.5
2022-08-17T19:26:51.571Z,6.5
2022-08-17T19:32:48.019Z,5.2
2022-08-17T19:39:07.475Z,5.2
2022-08-17T19:45:30.516Z,4.5
2022-08-17T19:51:50.505Z,4.5
2022-08-17T19:58:17.803Z,4.9
2022-08-17T20:04:33.473Z,4.9
2022-08-17T20:10:56.514Z,5.8
2022-08-17T20:17:16.456Z,5.8
2022-08-17T20:23:39.481Z,8.2
2022-08-17T20:46:09.569Z,6.4
2022-08-17T20:52:29.486Z,6.4
2022-08-17T20:58:52.477Z,5.8
2022-08-17T21:05:12.503Z,5.8
2022-08-17T21:11:57.523Z,4.4
2022-08-17T21:17:55.491Z,4.4
2022-08-17T21:24:18.456Z,4.3
2022-08-17T21:30:38.511Z,4.3
2022-08-17T21:37:01.479Z,4.8
2022-08-17T21:43:21.470Z,4.8
2022-08-17T21:49:44.525Z,8.3
2022-08-17T21:56:04.460Z,8.3
2022-08-17T22:02:27.565Z,5.8
2022-08-17T22:25:25.824Z,12.4
2022-08-17T22:31:45.497Z,12.4
2022-08-17T22:38:08.525Z,12.4
2022-08-17T22:44:28.467Z,12.4
2022-08-17T22:50:51.483Z,6.3
2022-08-17T22:57:11.526Z,6.3
2022-08-17T23:03:34.457Z,6.6
2022-08-17T23:09:54.520Z,6.6
2022-08-17T23:16:17.484Z,7.5
2022-08-17T23:22:37.476Z,7.5
2022-08-17T23:29:00.493Z,10.3
2022-08-17T23:35:20.490Z,10.3
2022-08-17T23:41:43.522Z,7.8
2022-08-17T23:48:03.502Z,7.8
2022-08-17T23:54:26.526Z,6.4
